sensor_id;sensor_type;location;lat;lon;timestamp;P1;durP1;ratioP1;P2;durP2;ratioP2
10116;SDS011;5098;48.792;9.012;2023-02-28T00:02:19;2.55;;;2.35;;
10116;SDS011;5098;48.792;9.012;2023-02-28T00:04:45;2.90;;;2.58;;
10116;SDS011;5098;48.792;9.012;2023-02-28T00:07:26;4.20;;;2.70;;
10116;SDS011;5098;48.792;9.012;2023-02-28T00:09:52;3.47;;;2.80;;
10116;SDS011;5098;48.792;9.012;2023-02-28T00:12:18;3.03;;;2.70;;
10116;SDS011;5098;48.792;9.012;2023-02-28T00:14:44;4.40;;;2.83;;
10116;SDS011;5098;48.792;9.012;2023-02-28T00:17:10;3.05;;;2.30;;
10116;SDS011;5098;48.792;9.012;2023-02-28T00:19:36;3.50;;;2.45;;
10116;SDS011;5098;48.792;9.012;2023-02-28T00:22:04;3.00;;;2.70;;
10116;SDS011;5098;48.792;9.012;2023-02-28T00:24:30;2.70;;;2.10;;
10116;SDS011;5098;48.792;9.012;2023-02-28T00:26:56;2.55;;;2.35;;
10116;SDS011;5098;48.792;9.012;2023-02-28T00:29:22;3.15;;;2.80;;
10116;SDS011;5098;48.792;9.012;2023-02-28T00:31:48;3.25;;;2.63;;
10116;SDS011;5098;48.792;9.012;2023-02-28T00:34:14;3.28;;;2.50;;
10116;SDS011;5098;48.792;9.012;2023-02-28T00:36:40;4.95;;;2.80;;
10116;SDS011;5098;48.792;9.012;2023-02-28T00:39:10;2.75;;;2.42;;
10116;SDS011;5098;48.792;9.012;2023-02-28T00:41:36;3.97;;;2.70;;
10116;SDS011;5098;48.792;9.012;2023-02-28T00:44:02;3.75;;;2.53;;
10116;SDS011;5098;48.792;9.012;2023-02-28T00:46:28;4.55;;;2.63;;
10116;SDS011;5098;48.792;9.012;2023-02-28T00:48:54;6.03;;;3.10;;
10116;SDS011;5098;48.792;9.012;2023-02-28T00:51:21;2.83;;;2.47;;
10116;SDS011;5098;48.792;9.012;2023-02-28T00:53:47;4.43;;;2.85;;
10116;SDS011;5098;48.792;9.012;2023-02-28T00:56:13;3.00;;;2.70;;
10116;SDS011;5098;48.792;9.012;2023-02-28T00:58:39;4.40;;;2.95;;
10116;SDS011;5098;48.792;9.012;2023-02-28T01:01:05;3.40;;;2.78;;
10116;SDS011;5098;48.792;9.012;2023-02-28T01:03:31;3.70;;;2.72;;
10116;SDS011;5098;48.792;9.012;2023-02-28T01:05:58;6.82;;;3.25;;
10116;SDS011;5098;48.792;9.012;2023-02-28T01:08:24;5.65;;;2.90;;
10116;SDS011;5098;48.792;9.012;2023-02-28T01:10:51;4.05;;;2.78;;
10116;SDS011;5098;48.792;9.012;2023-02-28T01:13:17;5.05;;;2.60;;
10116;SDS011;5098;48.792;9.012;2023-02-28T01:15:45;4.30;;;3.00;;
10116;SDS011;5098;48.792;9.012;2023-02-28T01:18:14;4.82;;;3.20;;
10116;SDS011;5098;48.792;9.012;2023-02-28T01:20:40;3.35;;;2.92;;
10116;SDS011;5098;48.792;9.012;2023-02-28T01:23:06;4.65;;;2.45;;
10116;SDS011;5098;48.792;9.012;2023-02-28T01:25:33;3.42;;;2.85;;
10116;SDS011;5098;48.792;9.012;2023-02-28T01:27:59;3.92;;;3.60;;
10116;SDS011;5098;48.792;9.012;2023-02-28T01:30:26;4.50;;;3.38;;
10116;SDS011;5098;48.792;9.012;2023-02-28T01:32:52;3.40;;;3.10;;
10116;SDS011;5098;48.792;9.012;2023-02-28T01:35:18;4.45;;;3.25;;
10116;SDS011;5098;48.792;9.012;2023-02-28T01:37:45;3.92;;;3.53;;
10116;SDS011;5098;48.792;9.012;2023-02-28T01:40:11;3.88;;;3.40;;
10116;SDS011;5098;48.792;9.012;2023-02-28T01:42:37;5.88;;;2.60;;
10116;SDS011;5098;48.792;9.012;2023-02-28T01:47:45;6.82;;;3.50;;
10116;SDS011;5098;48.792;9.012;2023-02-28T01:50:16;3.92;;;3.30;;
10116;SDS011;5098;48.792;9.012;2023-02-28T01:52:43;5.43;;;2.92;;
10116;SDS011;5098;48.792;9.012;2023-02-28T01:55:10;5.22;;;3.47;;
10116;SDS011;5098;48.792;9.012;2023-02-28T01:57:38;4.15;;;3.63;;
10116;SDS011;5098;48.792;9.012;2023-02-28T02:00:07;6.93;;;3.10;;
10116;SDS011;5098;48.792;9.012;2023-02-28T02:02:34;4.65;;;4.15;;
10116;SDS011;5098;48.792;9.012;2023-02-28T02:05:06;4.68;;;3.63;;
10116;SDS011;5098;48.792;9.012;2023-02-28T02:07:34;5.00;;;3.78;;
10116;SDS011;5098;48.792;9.012;2023-02-28T02:10:03;3.25;;;2.78;;
10116;SDS011;5098;48.792;9.012;2023-02-28T02:17:54;4.47;;;4.05;;
10116;SDS011;5098;48.792;9.012;2023-02-28T02:25:42;4.65;;;3.78;;
10116;SDS011;5098;48.792;9.012;2023-02-28T02:43:38;5.90;;;4.03;;
10116;SDS011;5098;48.792;9.012;2023-02-28T02:49:06;4.00;;;3.15;;
10116;SDS011;5098;48.792;9.012;2023-02-28T02:51:34;6.60;;;3.63;;
10116;SDS011;5098;48.792;9.012;2023-02-28T02:56:28;4.43;;;4.03;;
10116;SDS011;5098;48.792;9.012;2023-02-28T02:58:55;5.00;;;4.35;;
10116;SDS011;5098;48.792;9.012;2023-02-28T03:01:23;5.30;;;3.60;;
10116;SDS011;5098;48.792;9.012;2023-02-28T03:03:55;5.07;;;4.40;;
10116;SDS011;5098;48.792;9.012;2023-02-28T03:06:21;5.57;;;4.22;;
10116;SDS011;5098;48.792;9.012;2023-02-28T03:08:47;5.50;;;4.15;;
10116;SDS011;5098;48.792;9.012;2023-02-28T03:11:14;5.00;;;4.15;;
10116;SDS011;5098;48.792;9.012;2023-02-28T03:24:17;4.65;;;4.25;;
10116;SDS011;5098;48.792;9.012;2023-02-28T03:26:52;4.45;;;4.03;;
10116;SDS011;5098;48.792;9.012;2023-02-28T03:29:21;5.35;;;4.30;;
10116;SDS011;5098;48.792;9.012;2023-02-28T03:31:50;4.63;;;4.15;;
10116;SDS011;5098;48.792;9.012;2023-02-28T03:34:25;4.55;;;4.05;;
10116;SDS011;5098;48.792;9.012;2023-02-28T03:36:55;9.00;;;4.63;;
10116;SDS011;5098;48.792;9.012;2023-02-28T03:39:24;4.72;;;3.85;;
10116;SDS011;5098;48.792;9.012;2023-02-28T03:41:54;5.43;;;4.25;;
10116;SDS011;5098;48.792;9.012;2023-02-28T03:44:22;4.63;;;4.20;;
10116;SDS011;5098;48.792;9.012;2023-02-28T03:46:52;5.60;;;4.63;;
10116;SDS011;5098;48.792;9.012;2023-02-28T03:49:21;6.68;;;4.30;;
10116;SDS011;5098;48.792;9.012;2023-02-28T03:51:48;7.35;;;4.70;;
10116;SDS011;5098;48.792;9.012;2023-02-28T03:54:17;5.28;;;3.83;;
10116;SDS011;5098;48.792;9.012;2023-02-28T03:56:48;6.57;;;5.30;;
10116;SDS011;5098;48.792;9.012;2023-02-28T03:59:37;6.32;;;4.15;;
10116;SDS011;5098;48.792;9.012;2023-02-28T04:02:05;6.20;;;4.45;;
10116;SDS011;5098;48.792;9.012;2023-02-28T04:04:31;6.25;;;4.30;;
10116;SDS011;5098;48.792;9.012;2023-02-28T04:07:07;5.20;;;4.55;;
10116;SDS011;5098;48.792;9.012;2023-02-28T04:09:34;5.13;;;4.63;;
10116;SDS011;5098;48.792;9.012;2023-02-28T04:12:00;8.63;;;5.10;;
10116;SDS011;5098;48.792;9.012;2023-02-28T04:14:26;5.72;;;4.72;;
10116;SDS011;5098;48.792;9.012;2023-02-28T04:16:52;7.32;;;4.90;;
10116;SDS011;5098;48.792;9.012;2023-02-28T04:19:18;5.40;;;4.82;;
10116;SDS011;5098;48.792;9.012;2023-02-28T04:21:49;7.25;;;4.45;;
10116;SDS011;5098;48.792;9.012;2023-02-28T04:24:19;6.55;;;5.28;;
10116;SDS011;5098;48.792;9.012;2023-02-28T04:26:46;5.50;;;4.57;;
10116;SDS011;5098;48.792;9.012;2023-02-28T04:29:13;6.57;;;4.18;;
10116;SDS011;5098;48.792;9.012;2023-02-28T04:31:40;6.47;;;4.53;;
10116;SDS011;5098;48.792;9.012;2023-02-28T04:34:06;5.13;;;4.60;;
10116;SDS011;5098;48.792;9.012;2023-02-28T04:36:32;7.05;;;4.63;;
10116;SDS011;5098;48.792;9.012;2023-02-28T04:38:58;7.55;;;5.22;;
10116;SDS011;5098;48.792;9.012;2023-02-28T04:41:24;5.22;;;4.57;;
10116;SDS011;5098;48.792;9.012;2023-02-28T04:43:51;6.25;;;5.30;;
10116;SDS011;5098;48.792;9.012;2023-02-28T04:46:17;6.20;;;5.43;;
10116;SDS011;5098;48.792;9.012;2023-02-28T04:48:44;6.90;;;5.20;;
10116;SDS011;5098;48.792;9.012;2023-02-28T04:51:11;6.05;;;4.70;;
10116;SDS011;5098;48.792;9.012;2023-02-28T04:53:37;5.90;;;5.28;;
10116;SDS011;5098;48.792;9.012;2023-02-28T04:56:04;5.05;;;3.67;;
10116;SDS011;5098;48.792;9.012;2023-02-28T04:58:31;7.07;;;5.38;;
10116;SDS011;5098;48.792;9.012;2023-02-28T05:01:13;6.25;;;5.40;;
10116;SDS011;5098;48.792;9.012;2023-02-28T05:03:41;5.20;;;4.65;;
10116;SDS011;5098;48.792;9.012;2023-02-28T05:06:07;6.22;;;5.03;;
10116;SDS011;5098;48.792;9.012;2023-02-28T05:08:33;4.45;;;3.95;;
10116;SDS011;5098;48.792;9.012;2023-02-28T05:10:59;6.63;;;5.10;;
10116;SDS011;5098;48.792;9.012;2023-02-28T05:13:26;6.65;;;4.78;;
10116;SDS011;5098;48.792;9.012;2023-02-28T05:15:52;8.20;;;5.70;;
10116;SDS011;5098;48.792;9.012;2023-02-28T05:18:18;6.65;;;4.97;;
10116;SDS011;5098;48.792;9.012;2023-02-28T05:20:44;7.28;;;5.32;;
10116;SDS011;5098;48.792;9.012;2023-02-28T05:23:11;6.00;;;4.10;;
10116;SDS011;5098;48.792;9.012;2023-02-28T05:25:38;5.60;;;4.45;;
10116;SDS011;5098;48.792;9.012;2023-02-28T05:28:04;5.75;;;4.70;;
10116;SDS011;5098;48.792;9.012;2023-02-28T05:30:30;8.77;;;4.80;;
10116;SDS011;5098;48.792;9.012;2023-02-28T05:32:57;5.88;;;5.28;;
10116;SDS011;5098;48.792;9.012;2023-02-28T05:35:24;5.22;;;4.72;;
10116;SDS011;5098;48.792;9.012;2023-02-28T05:37:50;5.75;;;5.10;;
10116;SDS011;5098;48.792;9.012;2023-02-28T05:40:16;6.28;;;5.05;;
10116;SDS011;5098;48.792;9.012;2023-02-28T05:42:44;5.32;;;4.75;;
10116;SDS011;5098;48.792;9.012;2023-02-28T05:45:10;6.28;;;3.60;;
10116;SDS011;5098;48.792;9.012;2023-02-28T05:47:36;7.30;;;3.63;;
10116;SDS011;5098;48.792;9.012;2023-02-28T05:50:03;5.93;;;5.30;;
10116;SDS011;5098;48.792;9.012;2023-02-28T05:52:29;7.07;;;5.68;;
10116;SDS011;5098;48.792;9.012;2023-02-28T05:54:55;7.45;;;5.18;;
10116;SDS011;5098;48.792;9.012;2023-02-28T05:57:21;7.53;;;6.20;;
10116;SDS011;5098;48.792;9.012;2023-02-28T05:59:48;4.78;;;4.05;;
10116;SDS011;5098;48.792;9.012;2023-02-28T06:02:15;7.35;;;5.30;;
10116;SDS011;5098;48.792;9.012;2023-02-28T06:04:41;7.68;;;4.38;;
10116;SDS011;5098;48.792;9.012;2023-02-28T06:07:08;5.93;;;4.63;;
10116;SDS011;5098;48.792;9.012;2023-02-28T06:09:34;6.65;;;5.35;;
10116;SDS011;5098;48.792;9.012;2023-02-28T06:12:00;6.05;;;5.22;;
10116;SDS011;5098;48.792;9.012;2023-02-28T06:14:28;7.70;;;6.10;;
10116;SDS011;5098;48.792;9.012;2023-02-28T06:16:56;6.93;;;6.22;;
10116;SDS011;5098;48.792;9.012;2023-02-28T06:19:22;6.22;;;5.63;;
10116;SDS011;5098;48.792;9.012;2023-02-28T06:21:50;4.53;;;4.00;;
10116;SDS011;5098;48.792;9.012;2023-02-28T06:24:17;7.55;;;6.28;;
10116;SDS011;5098;48.792;9.012;2023-02-28T06:26:44;9.10;;;6.32;;
10116;SDS011;5098;48.792;9.012;2023-02-28T06:29:10;7.50;;;5.68;;
10116;SDS011;5098;48.792;9.012;2023-02-28T06:31:36;7.03;;;5.88;;
10116;SDS011;5098;48.792;9.012;2023-02-28T06:34:03;7.75;;;5.72;;
10116;SDS011;5098;48.792;9.012;2023-02-28T06:36:29;7.32;;;5.53;;
10116;SDS011;5098;48.792;9.012;2023-02-28T06:38:56;5.30;;;4.43;;
10116;SDS011;5098;48.792;9.012;2023-02-28T06:41:26;8.30;;;6.38;;
10116;SDS011;5098;48.792;9.012;2023-02-28T06:43:52;7.50;;;5.38;;
10116;SDS011;5098;48.792;9.012;2023-02-28T06:46:18;6.80;;;6.13;;
10116;SDS011;5098;48.792;9.012;2023-02-28T06:48:45;9.90;;;5.88;;
10116;SDS011;5098;48.792;9.012;2023-02-28T06:51:13;8.13;;;6.70;;
10116;SDS011;5098;48.792;9.012;2023-02-28T06:53:39;6.57;;;5.68;;
10116;SDS011;5098;48.792;9.012;2023-02-28T06:56:06;7.32;;;5.75;;
10116;SDS011;5098;48.792;9.012;2023-02-28T06:58:33;8.52;;;5.70;;
10116;SDS011;5098;48.792;9.012;2023-02-28T07:00:59;7.57;;;6.70;;
10116;SDS011;5098;48.792;9.012;2023-02-28T07:03:25;9.10;;;6.25;;
10116;SDS011;5098;48.792;9.012;2023-02-28T07:05:51;7.35;;;5.30;;
10116;SDS011;5098;48.792;9.012;2023-02-28T07:08:17;10.02;;;6.53;;
10116;SDS011;5098;48.792;9.012;2023-02-28T07:10:44;6.47;;;5.18;;
10116;SDS011;5098;48.792;9.012;2023-02-28T07:13:10;9.60;;;6.28;;
10116;SDS011;5098;48.792;9.012;2023-02-28T07:15:36;11.57;;;7.03;;
10116;SDS011;5098;48.792;9.012;2023-02-28T07:18:03;8.63;;;6.13;;
10116;SDS011;5098;48.792;9.012;2023-02-28T07:20:29;6.95;;;4.70;;
10116;SDS011;5098;48.792;9.012;2023-02-28T07:22:55;11.75;;;5.65;;
10116;SDS011;5098;48.792;9.012;2023-02-28T07:25:25;7.45;;;6.15;;
10116;SDS011;5098;48.792;9.012;2023-02-28T07:27:51;8.70;;;6.95;;
10116;SDS011;5098;48.792;9.012;2023-02-28T07:30:17;7.60;;;6.63;;
10116;SDS011;5098;48.792;9.012;2023-02-28T07:32:44;9.10;;;7.22;;
10116;SDS011;5098;48.792;9.012;2023-02-28T07:35:10;9.02;;;5.88;;
10116;SDS011;5098;48.792;9.012;2023-02-28T07:37:36;5.93;;;4.70;;
10116;SDS011;5098;48.792;9.012;2023-02-28T07:40:03;7.45;;;5.53;;
10116;SDS011;5098;48.792;9.012;2023-02-28T07:42:32;8.23;;;6.07;;
10116;SDS011;5098;48.792;9.012;2023-02-28T07:44:58;5.35;;;4.40;;
10116;SDS011;5098;48.792;9.012;2023-02-28T07:47:24;8.18;;;6.53;;
10116;SDS011;5098;48.792;9.012;2023-02-28T07:49:50;9.85;;;6.63;;
10116;SDS011;5098;48.792;9.012;2023-02-28T07:52:16;9.02;;;5.93;;
10116;SDS011;5098;48.792;9.012;2023-02-28T07:54:42;7.85;;;6.07;;
10116;SDS011;5098;48.792;9.012;2023-02-28T07:57:08;9.63;;;6.82;;
10116;SDS011;5098;48.792;9.012;2023-02-28T07:59:34;7.45;;;6.55;;
10116;SDS011;5098;48.792;9.012;2023-02-28T08:02:00;6.40;;;5.60;;
10116;SDS011;5098;48.792;9.012;2023-02-28T08:04:26;10.18;;;5.85;;
10116;SDS011;5098;48.792;9.012;2023-02-28T08:06:53;7.63;;;6.43;;
10116;SDS011;5098;48.792;9.012;2023-02-28T08:09:21;10.65;;;6.85;;
10116;SDS011;5098;48.792;9.012;2023-02-28T08:11:47;9.32;;;6.90;;
10116;SDS011;5098;48.792;9.012;2023-02-28T08:14:13;7.57;;;6.80;;
10116;SDS011;5098;48.792;9.012;2023-02-28T08:16:40;11.82;;;6.93;;
10116;SDS011;5098;48.792;9.012;2023-02-28T08:19:07;8.15;;;7.20;;
10116;SDS011;5098;48.792;9.012;2023-02-28T08:21:33;7.82;;;5.88;;
10116;SDS011;5098;48.792;9.012;2023-02-28T08:24:00;9.60;;;7.93;;
10116;SDS011;5098;48.792;9.012;2023-02-28T08:26:26;11.15;;;6.90;;
10116;SDS011;5098;48.792;9.012;2023-02-28T08:28:52;9.50;;;6.55;;
10116;SDS011;5098;48.792;9.012;2023-02-28T08:31:18;9.57;;;7.40;;
10116;SDS011;5098;48.792;9.012;2023-02-28T08:33:45;6.55;;;5.85;;
10116;SDS011;5098;48.792;9.012;2023-02-28T08:36:13;10.40;;;7.07;;
10116;SDS011;5098;48.792;9.012;2023-02-28T08:38:40;8.93;;;7.40;;
10116;SDS011;5098;48.792;9.012;2023-02-28T08:41:07;9.93;;;7.20;;
10116;SDS011;5098;48.792;9.012;2023-02-28T08:43:34;8.13;;;5.70;;
10116;SDS011;5098;48.792;9.012;2023-02-28T08:46:00;9.10;;;6.70;;
10116;SDS011;5098;48.792;9.012;2023-02-28T08:48:27;8.35;;;6.68;;
10116;SDS011;5098;48.792;9.012;2023-02-28T08:51:01;7.10;;;5.72;;
10116;SDS011;5098;48.792;9.012;2023-02-28T08:53:27;8.63;;;7.00;;
10116;SDS011;5098;48.792;9.012;2023-02-28T08:56:00;9.20;;;7.00;;
10116;SDS011;5098;48.792;9.012;2023-02-28T08:58:27;8.63;;;7.10;;
10116;SDS011;5098;48.792;9.012;2023-02-28T09:00:53;11.45;;;8.07;;
10116;SDS011;5098;48.792;9.012;2023-02-28T09:03:19;10.10;;;7.95;;
10116;SDS011;5098;48.792;9.012;2023-02-28T09:05:56;8.88;;;7.18;;
10116;SDS011;5098;48.792;9.012;2023-02-28T09:08:23;10.18;;;7.70;;
10116;SDS011;5098;48.792;9.012;2023-02-28T09:10:49;7.97;;;5.57;;
10116;SDS011;5098;48.792;9.012;2023-02-28T09:13:15;8.85;;;6.68;;
10116;SDS011;5098;48.792;9.012;2023-02-28T09:15:42;9.63;;;7.35;;
10116;SDS011;5098;48.792;9.012;2023-02-28T09:18:08;10.15;;;7.28;;
10116;SDS011;5098;48.792;9.012;2023-02-28T09:20:34;7.95;;;7.05;;
10116;SDS011;5098;48.792;9.012;2023-02-28T09:23:00;10.07;;;7.60;;
10116;SDS011;5098;48.792;9.012;2023-02-28T09:25:26;10.65;;;8.05;;
10116;SDS011;5098;48.792;9.012;2023-02-28T09:27:52;9.13;;;7.18;;
10116;SDS011;5098;48.792;9.012;2023-02-28T09:30:18;9.63;;;7.32;;
10116;SDS011;5098;48.792;9.012;2023-02-28T09:32:44;10.15;;;7.30;;
10116;SDS011;5098;48.792;9.012;2023-02-28T09:35:17;9.60;;;7.90;;
10116;SDS011;5098;48.792;9.012;2023-02-28T09:37:43;10.48;;;6.80;;
10116;SDS011;5098;48.792;9.012;2023-02-28T09:40:09;10.38;;;7.40;;
10116;SDS011;5098;48.792;9.012;2023-02-28T09:42:35;10.85;;;8.27;;
10116;SDS011;5098;48.792;9.012;2023-02-28T09:45:02;9.45;;;8.45;;
10116;SDS011;5098;48.792;9.012;2023-02-28T09:47:35;11.52;;;9.15;;
10116;SDS011;5098;48.792;9.012;2023-02-28T09:50:17;8.82;;;7.68;;
10116;SDS011;5098;48.792;9.012;2023-02-28T09:52:45;9.40;;;6.60;;
10116;SDS011;5098;48.792;9.012;2023-02-28T09:57:41;11.00;;;8.27;;
10116;SDS011;5098;48.792;9.012;2023-02-28T10:00:23;10.32;;;9.13;;
10116;SDS011;5098;48.792;9.012;2023-02-28T10:05:52;10.45;;;9.35;;
10116;SDS011;5098;48.792;9.012;2023-02-28T10:08:30;7.95;;;7.15;;
10116;SDS011;5098;48.792;9.012;2023-02-28T10:11:00;10.35;;;8.82;;
10116;SDS011;5098;48.792;9.012;2023-02-28T10:16:16;8.40;;;7.07;;
10116;SDS011;5098;48.792;9.012;2023-02-28T10:18:46;10.20;;;8.70;;
10116;SDS011;5098;48.792;9.012;2023-02-28T10:21:59;10.32;;;9.23;;
10116;SDS011;5098;48.792;9.012;2023-02-28T10:24:05;8.90;;;6.25;;
10116;SDS011;5098;48.792;9.012;2023-02-28T10:26:37;11.00;;;7.65;;
10116;SDS011;5098;48.792;9.012;2023-02-28T10:29:03;9.93;;;8.07;;
10116;SDS011;5098;48.792;9.012;2023-02-28T10:31:29;8.85;;;7.00;;
10116;SDS011;5098;48.792;9.012;2023-02-28T10:33:55;10.15;;;7.60;;
10116;SDS011;5098;48.792;9.012;2023-02-28T10:36:21;9.80;;;8.38;;
10116;SDS011;5098;48.792;9.012;2023-02-28T10:38:48;10.60;;;9.10;;
10116;SDS011;5098;48.792;9.012;2023-02-28T10:43:41;7.87;;;6.50;;
10116;SDS011;5098;48.792;9.012;2023-02-28T10:51:00;9.60;;;6.88;;
10116;SDS011;5098;48.792;9.012;2023-02-28T10:53:31;14.13;;;8.40;;
10116;SDS011;5098;48.792;9.012;2023-02-28T10:56:02;9.93;;;7.93;;
10116;SDS011;5098;48.792;9.012;2023-02-28T10:58:30;12.93;;;7.78;;
10116;SDS011;5098;48.792;9.012;2023-02-28T11:00:57;7.82;;;5.57;;
10116;SDS011;5098;48.792;9.012;2023-02-28T11:03:31;9.07;;;7.60;;
10116;SDS011;5098;48.792;9.012;2023-02-28T11:05:58;10.57;;;8.45;;
10116;SDS011;5098;48.792;9.012;2023-02-28T11:08:24;8.68;;;6.90;;
10116;SDS011;5098;48.792;9.012;2023-02-28T11:10:54;8.95;;;6.70;;
10116;SDS011;5098;48.792;9.012;2023-02-28T11:13:24;10.13;;;8.10;;
10116;SDS011;5098;48.792;9.012;2023-02-28T11:15:51;12.45;;;9.48;;
10116;SDS011;5098;48.792;9.012;2023-02-28T11:21:04;10.77;;;9.43;;
10116;SDS011;5098;48.792;9.012;2023-02-28T11:23:30;8.73;;;7.90;;
10116;SDS011;5098;48.792;9.012;2023-02-28T11:25:59;10.00;;;8.27;;
10116;SDS011;5098;48.792;9.012;2023-02-28T11:28:35;11.95;;;9.50;;
10116;SDS011;5098;48.792;9.012;2023-02-28T11:31:04;12.00;;;9.73;;
10116;SDS011;5098;48.792;9.012;2023-02-28T11:33:44;9.48;;;7.88;;
10116;SDS011;5098;48.792;9.012;2023-02-28T11:36:14;10.32;;;9.32;;
10116;SDS011;5098;48.792;9.012;2023-02-28T11:38:42;10.98;;;9.77;;
10116;SDS011;5098;48.792;9.012;2023-02-28T11:46:25;8.45;;;7.55;;
10116;SDS011;5098;48.792;9.012;2023-02-28T11:51:23;9.13;;;7.57;;
10116;SDS011;5098;48.792;9.012;2023-02-28T11:56:38;10.27;;;8.20;;
10116;SDS011;5098;48.792;9.012;2023-02-28T11:59:12;8.30;;;7.45;;
10116;SDS011;5098;48.792;9.012;2023-02-28T12:01:45;11.63;;;7.70;;
10116;SDS011;5098;48.792;9.012;2023-02-28T12:04:21;11.70;;;8.95;;
10116;SDS011;5098;48.792;9.012;2023-02-28T12:09:26;10.13;;;9.13;;
10116;SDS011;5098;48.792;9.012;2023-02-28T12:12:59;9.48;;;8.30;;
10116;SDS011;5098;48.792;9.012;2023-02-28T12:15:13;11.20;;;8.80;;
10116;SDS011;5098;48.792;9.012;2023-02-28T12:20:35;11.97;;;8.80;;
10116;SDS011;5098;48.792;9.012;2023-02-28T12:28:09;10.13;;;8.10;;
10116;SDS011;5098;48.792;9.012;2023-02-28T12:30:37;9.18;;;7.63;;
10116;SDS011;5098;48.792;9.012;2023-02-28T12:33:06;11.30;;;7.93;;
10116;SDS011;5098;48.792;9.012;2023-02-28T12:35:34;10.00;;;8.48;;
10116;SDS011;5098;48.792;9.012;2023-02-28T12:40:39;10.03;;;9.00;;
10116;SDS011;5098;48.792;9.012;2023-02-28T12:43:07;10.85;;;9.65;;
10116;SDS011;5098;48.792;9.012;2023-02-28T12:45:48;10.00;;;9.00;;
10116;SDS011;5098;48.792;9.012;2023-02-28T12:48:18;6.72;;;6.00;;
10116;SDS011;5098;48.792;9.012;2023-02-28T12:50:46;9.82;;;8.93;;
10116;SDS011;5098;48.792;9.012;2023-02-28T12:58:33;9.43;;;8.52;;
10116;SDS011;5098;48.792;9.012;2023-02-28T13:11:23;7.88;;;7.07;;
10116;SDS011;5098;48.792;9.012;2023-02-28T13:13:54;9.13;;;8.27;;
10116;SDS011;5098;48.792;9.012;2023-02-28T13:16:22;10.60;;;6.78;;
10116;SDS011;5098;48.792;9.012;2023-02-28T13:18:48;11.60;;;8.37;;
10116;SDS011;5098;48.792;9.012;2023-02-28T13:21:25;8.70;;;6.97;;
10116;SDS011;5098;48.792;9.012;2023-02-28T13:23:56;7.55;;;6.60;;
10116;SDS011;5098;48.792;9.012;2023-02-28T13:34:21;9.05;;;7.90;;
10116;SDS011;5098;48.792;9.012;2023-02-28T13:36:47;7.87;;;6.73;;
10116;SDS011;5098;48.792;9.012;2023-02-28T13:42:00;9.37;;;8.37;;
10116;SDS011;5098;48.792;9.012;2023-02-28T13:47:32;15.73;;;8.50;;
10116;SDS011;5098;48.792;9.012;2023-02-28T13:56:00;9.60;;;7.80;;
10116;SDS011;5098;48.792;9.012;2023-02-28T13:58:41;9.87;;;8.83;;
10116;SDS011;5098;48.792;9.012;2023-02-28T14:06:37;9.00;;;8.10;;
10116;SDS011;5098;48.792;9.012;2023-02-28T14:11:49;8.27;;;7.40;;
10116;SDS011;5098;48.792;9.012;2023-02-28T14:17:01;10.38;;;7.90;;
10116;SDS011;5098;48.792;9.012;2023-02-28T14:19:29;9.30;;;8.07;;
10116;SDS011;5098;48.792;9.012;2023-02-28T14:24:28;8.00;;;7.20;;
10116;SDS011;5098;48.792;9.012;2023-02-28T14:34:46;9.43;;;7.17;;
10116;SDS011;5098;48.792;9.012;2023-02-28T14:37:16;10.47;;;8.50;;
10116;SDS011;5098;48.792;9.012;2023-02-28T14:39:45;9.35;;;8.35;;
10116;SDS011;5098;48.792;9.012;2023-02-28T14:42:32;9.43;;;7.97;;
10116;SDS011;5098;48.792;9.012;2023-02-28T14:44:59;9.10;;;7.53;;
10116;SDS011;5098;48.792;9.012;2023-02-28T14:47:27;9.40;;;8.50;;
10116;SDS011;5098;48.792;9.012;2023-02-28T14:49:54;8.90;;;8.00;;
10116;SDS011;5098;48.792;9.012;2023-02-28T14:52:23;11.10;;;8.20;;
10116;SDS011;5098;48.792;9.012;2023-02-28T14:54:52;9.30;;;8.30;;
10116;SDS011;5098;48.792;9.012;2023-02-28T14:57:24;8.97;;;8.07;;
10116;SDS011;5098;48.792;9.012;2023-02-28T15:00:00;7.18;;;6.45;;
10116;SDS011;5098;48.792;9.012;2023-02-28T15:02:33;8.87;;;8.07;;
10116;SDS011;5098;48.792;9.012;2023-02-28T15:05:22;9.10;;;8.10;;
10116;SDS011;5098;48.792;9.012;2023-02-28T15:07:46;10.23;;;7.93;;
10116;SDS011;5098;48.792;9.012;2023-02-28T15:10:20;9.73;;;8.73;;
10116;SDS011;5098;48.792;9.012;2023-02-28T15:13:10;8.02;;;7.22;;
10116;SDS011;5098;48.792;9.012;2023-02-28T15:18:06;9.25;;;7.47;;
10116;SDS011;5098;48.792;9.012;2023-02-28T15:20:33;7.45;;;6.75;;
10116;SDS011;5098;48.792;9.012;2023-02-28T15:23:00;9.07;;;8.15;;
10116;SDS011;5098;48.792;9.012;2023-02-28T15:25:27;13.00;;;8.50;;
10116;SDS011;5098;48.792;9.012;2023-02-28T15:27:53;18.35;;;8.20;;
10116;SDS011;5098;48.792;9.012;2023-02-28T15:30:21;9.98;;;8.55;;
10116;SDS011;5098;48.792;9.012;2023-02-28T15:35:36;9.00;;;7.75;;
10116;SDS011;5098;48.792;9.012;2023-02-28T15:40:41;7.65;;;6.90;;
10116;SDS011;5098;48.792;9.012;2023-02-28T15:43:18;11.10;;;7.97;;
10116;SDS011;5098;48.792;9.012;2023-02-28T15:45:51;11.52;;;8.57;;
10116;SDS011;5098;48.792;9.012;2023-02-28T15:50:48;9.43;;;7.93;;
10116;SDS011;5098;48.792;9.012;2023-02-28T15:53:16;10.27;;;7.80;;
10116;SDS011;5098;48.792;9.012;2023-02-28T15:55:43;9.68;;;7.03;;
10116;SDS011;5098;48.792;9.012;2023-02-28T15:58:10;10.82;;;8.10;;
10116;SDS011;5098;48.792;9.012;2023-02-28T16:00:38;10.18;;;8.02;;
10116;SDS011;5098;48.792;9.012;2023-02-28T16:03:22;9.50;;;8.60;;
10116;SDS011;5098;48.792;9.012;2023-02-28T16:06:07;8.68;;;7.88;;
10116;SDS011;5098;48.792;9.012;2023-02-28T16:08:33;9.43;;;7.55;;
10116;SDS011;5098;48.792;9.012;2023-02-28T16:10:59;7.40;;;6.60;;
10116;SDS011;5098;48.792;9.012;2023-02-28T16:13:25;6.97;;;6.28;;
10116;SDS011;5098;48.792;9.012;2023-02-28T16:15:51;10.85;;;8.20;;
10116;SDS011;5098;48.792;9.012;2023-02-28T16:18:17;9.52;;;8.38;;
10116;SDS011;5098;48.792;9.012;2023-02-28T16:20:43;9.98;;;8.45;;
10116;SDS011;5098;48.792;9.012;2023-02-28T16:23:09;8.07;;;7.20;;
10116;SDS011;5098;48.792;9.012;2023-02-28T16:25:42;10.13;;;8.68;;
10116;SDS011;5098;48.792;9.012;2023-02-28T16:30:41;31.13;;;22.35;;
10116;SDS011;5098;48.792;9.012;2023-02-28T16:33:07;13.63;;;10.45;;
10116;SDS011;5098;48.792;9.012;2023-02-28T16:35:33;21.65;;;15.35;;
10116;SDS011;5098;48.792;9.012;2023-02-28T16:37:59;26.35;;;16.27;;
10116;SDS011;5098;48.792;9.012;2023-02-28T16:40:26;10.82;;;8.68;;
10116;SDS011;5098;48.792;9.012;2023-02-28T16:42:54;11.77;;;8.70;;
10116;SDS011;5098;48.792;9.012;2023-02-28T16:45:22;9.57;;;8.57;;
10116;SDS011;5098;48.792;9.012;2023-02-28T16:47:48;10.10;;;8.77;;
10116;SDS011;5098;48.792;9.012;2023-02-28T16:50:15;10.45;;;8.25;;
10116;SDS011;5098;48.792;9.012;2023-02-28T16:52:42;9.95;;;8.20;;
10116;SDS011;5098;48.792;9.012;2023-02-28T16:55:08;10.52;;;8.85;;
10116;SDS011;5098;48.792;9.012;2023-02-28T16:57:34;10.60;;;9.25;;
10116;SDS011;5098;48.792;9.012;2023-02-28T17:00:00;10.73;;;9.30;;
10116;SDS011;5098;48.792;9.012;2023-02-28T17:02:26;9.75;;;8.30;;
10116;SDS011;5098;48.792;9.012;2023-02-28T17:04:52;10.88;;;9.48;;
10116;SDS011;5098;48.792;9.012;2023-02-28T17:07:18;10.85;;;9.43;;
10116;SDS011;5098;48.792;9.012;2023-02-28T17:09:44;9.95;;;8.75;;
10116;SDS011;5098;48.792;9.012;2023-02-28T17:12:11;10.23;;;8.05;;
10116;SDS011;5098;48.792;9.012;2023-02-28T17:14:37;11.23;;;8.82;;
10116;SDS011;5098;48.792;9.012;2023-02-28T17:17:06;11.32;;;8.50;;
10116;SDS011;5098;48.792;9.012;2023-02-28T17:19:32;9.00;;;7.25;;
10116;SDS011;5098;48.792;9.012;2023-02-28T17:22:00;12.23;;;8.68;;
10116;SDS011;5098;48.792;9.012;2023-02-28T17:24:28;12.38;;;9.30;;
10116;SDS011;5098;48.792;9.012;2023-02-28T17:26:54;11.90;;;9.63;;
10116;SDS011;5098;48.792;9.012;2023-02-28T17:29:20;12.07;;;8.75;;
10116;SDS011;5098;48.792;9.012;2023-02-28T17:31:46;14.73;;;9.55;;
10116;SDS011;5098;48.792;9.012;2023-02-28T17:34:13;12.48;;;10.43;;
10116;SDS011;5098;48.792;9.012;2023-02-28T17:36:45;10.10;;;8.13;;
10116;SDS011;5098;48.792;9.012;2023-02-28T17:39:12;8.82;;;7.13;;
10116;SDS011;5098;48.792;9.012;2023-02-28T17:41:46;11.63;;;10.35;;